createdAt,value
2019-01-30T00:01:05.245Z,5.77
2019-01-30T00:03:36.459Z,5.73
2019-01-30T00:06:08.119Z,6.20
2019-01-30T00:08:39.374Z,6.80
2019-01-30T00:11:10.620Z,6.30
2019-01-30T00:13:41.898Z,5.23
2019-01-30T00:16:13.070Z,6.50
2019-01-30T00:18:44.355Z,5.37
2019-01-30T00:21:15.571Z,5.97
2019-01-30T00:23:46.765Z,5.03
2019-01-30T00:26:18.141Z,6.20
2019-01-30T00:28:49.420Z,7.20
2019-01-30T00:31:20.731Z,5.90
2019-01-30T00:33:51.978Z,5.73
2019-01-30T00:36:23.352Z,6.20
2019-01-30T00:38:54.594Z,5.60
2019-01-30T00:41:25.907Z,7.00
2019-01-30T00:43:57.144Z,6.47
2019-01-30T00:46:28.390Z,6.77
2019-01-30T00:48:59.667Z,5.30
2019-01-30T00:51:30.941Z,7.50
2019-01-30T00:54:02.128Z,5.90
2019-01-30T00:56:33.348Z,6.07
2019-01-30T00:59:04.605Z,4.90
2019-01-30T01:01:35.843Z,6.90
2019-01-30T01:04:07.148Z,4.93
2019-01-30T01:06:38.512Z,8.80
2019-01-30T01:09:11.987Z,6.87
2019-01-30T01:11:43.198Z,5.43
2019-01-30T01:14:14.476Z,5.03
2019-01-30T01:16:45.784Z,5.60
2019-01-30T01:19:17.066Z,6.10
2019-01-30T01:21:48.391Z,6.80
2019-01-30T01:24:19.647Z,5.50
2019-01-30T01:26:50.962Z,5.73
2019-01-30T01:29:22.242Z,5.43
2019-01-30T01:31:53.444Z,6.23
2019-01-30T01:34:24.779Z,6.63
2019-01-30T01:36:56.016Z,5.23
2019-01-30T01:39:27.315Z,6.53
2019-01-30T01:41:58.567Z,6.60
2019-01-30T01:44:29.819Z,7.83
2019-01-30T01:47:01.059Z,6.80
2019-01-30T01:49:32.367Z,6.60
2019-01-30T01:52:03.606Z,6.63
2019-01-30T01:54:34.863Z,6.30
2019-01-30T01:57:06.218Z,6.10
2019-01-30T01:59:37.461Z,6.53
2019-01-30T02:02:08.916Z,6.07
2019-01-30T02:04:40.161Z,5.67
2019-01-30T02:07:11.325Z,6.10
2019-01-30T02:09:42.543Z,6.70
2019-01-30T02:12:13.826Z,7.17
2019-01-30T02:14:45.046Z,7.87
2019-01-30T02:17:16.319Z,6.30
2019-01-30T02:19:47.706Z,7.70
2019-01-30T02:22:18.909Z,7.43
2019-01-30T02:24:50.155Z,6.97
2019-01-30T02:27:21.444Z,6.80
2019-01-30T02:29:52.592Z,6.80
2019-01-30T02:32:23.805Z,7.77
2019-01-30T02:34:55.079Z,7.93
2019-01-30T02:37:26.348Z,7.13
2019-01-30T02:39:57.629Z,8.07
2019-01-30T02:42:28.839Z,7.03
2019-01-30T02:45:00.210Z,7.17
2019-01-30T02:47:31.442Z,6.53
2019-01-30T02:50:02.770Z,7.13
2019-01-30T02:52:33.928Z,5.60
2019-01-30T02:55:06.158Z,6.90
2019-01-30T02:57:37.309Z,7.47
2019-01-30T03:00:30.516Z,6.13
2019-01-30T03:03:01.799Z,6.00
2019-01-30T03:05:33.651Z,7.87
2019-01-30T03:08:04.985Z,6.73
2019-01-30T03:10:36.289Z,7.00
2019-01-30T03:13:07.670Z,6.07
2019-01-30T03:15:38.941Z,6.60
2019-01-30T03:18:10.128Z,5.90
2019-01-30T03:20:41.374Z,6.20
2019-01-30T03:23:12.597Z,7.17
2019-01-30T03:25:43.857Z,6.87
2019-01-30T03:28:15.066Z,6.53
2019-01-30T03:30:46.329Z,6.10
2019-01-30T03:33:17.557Z,6.50
2019-01-30T03:35:48.806Z,6.27
2019-01-30T03:38:19.993Z,6.83
2019-01-30T03:40:51.253Z,6.40
2019-01-30T03:43:22.484Z,6.60
2019-01-30T03:45:53.672Z,7.50
2019-01-30T03:48:25.002Z,7.27
2019-01-30T03:50:56.270Z,7.10
2019-01-30T03:53:27.534Z,8.50
2019-01-30T03:55:58.722Z,6.63
2019-01-30T03:58:29.892Z,6.50
2019-01-30T04:01:01.190Z,6.43
2019-01-30T04:03:32.457Z,6.80
2019-01-30T04:06:03.703Z,7.53
2019-01-30T04:08:34.931Z,9.10
2019-01-30T04:11:06.239Z,7.47
2019-01-30T04:13:37.546Z,8.10
2019-01-30T04:16:08.885Z,8.20
2019-01-30T04:18:40.231Z,9.00
2019-01-30T04:21:11.410Z,12.47
2019-01-30T04:23:42.756Z,12.53
2019-01-30T04:26:14.024Z,16.90
2019-01-30T04:28:45.207Z,8.50
2019-01-30T04:31:16.386Z,9.37
2019-01-30T04:33:47.658Z,15.83
2019-01-30T04:36:18.918Z,11.27
2019-01-30T04:38:50.104Z,8.00
2019-01-30T04:41:21.392Z,7.30
2019-01-30T04:43:52.546Z,8.10
2019-01-30T04:46:23.850Z,7.50
2019-01-30T04:48:55.097Z,8.50
2019-01-30T04:51:26.424Z,7.87
2019-01-30T04:53:57.615Z,7.90
2019-01-30T04:56:28.919Z,7.13
2019-01-30T04:59:00.259Z,7.67
2019-01-30T05:01:31.448Z,6.93
2019-01-30T05:04:02.698Z,7.27
2019-01-30T05:06:34.025Z,8.13
2019-01-30T05:09:08.888Z,7.50
2019-01-30T05:11:40.157Z,7.17
2019-01-30T05:14:11.345Z,8.10
2019-01-30T05:16:42.647Z,8.37
2019-01-30T05:19:13.896Z,6.80
2019-01-30T05:21:45.234Z,7.80
2019-01-30T05:24:16.383Z,7.53
2019-01-30T05:26:47.776Z,7.20
2019-01-30T05:29:18.933Z,7.57
2019-01-30T05:32:00.638Z,7.40
2019-01-30T05:34:23.126Z,6.87
2019-01-30T05:36:54.376Z,7.40
2019-01-30T05:39:25.531Z,8.30
2019-01-30T05:41:56.828Z,6.70
2019-01-30T05:44:28.070Z,8.07
2019-01-30T05:46:59.278Z,7.10
2019-01-30T05:49:30.605Z,6.60
2019-01-30T05:52:01.887Z,8.00
2019-01-30T05:54:33.158Z,8.53
2019-01-30T05:57:04.431Z,6.40
2019-01-30T05:59:35.726Z,6.53
2019-01-30T06:02:12.101Z,7.67
2019-01-30T06:04:40.021Z,7.00
2019-01-30T06:07:11.180Z,8.70
2019-01-30T06:09:42.454Z,7.73
2019-01-30T06:12:13.710Z,7.30
2019-01-30T06:14:45.024Z,7.63
2019-01-30T06:17:16.374Z,7.33
2019-01-30T06:19:47.715Z,6.90
2019-01-30T06:22:19.017Z,7.37
2019-01-30T06:24:50.371Z,8.57
2019-01-30T06:27:21.599Z,8.77
2019-01-30T06:29:52.880Z,6.80
2019-01-30T06:32:24.145Z,7.67
2019-01-30T06:34:56.702Z,8.60
2019-01-30T06:37:28.231Z,9.43
2019-01-30T06:39:59.522Z,9.37
2019-01-30T06:42:30.784Z,7.93
2019-01-30T06:45:02.039Z,10.17
2019-01-30T06:47:33.248Z,11.77
2019-01-30T06:50:04.852Z,11.03
2019-01-30T06:52:37.296Z,9.73
2019-01-30T06:55:08.964Z,9.57
2019-01-30T06:57:40.329Z,9.80
2019-01-30T07:00:18.786Z,9.07
2019-01-30T07:02:50.137Z,7.50
2019-01-30T07:05:21.641Z,8.73
2019-01-30T07:07:52.915Z,8.27
2019-01-30T07:10:27.194Z,8.13
2019-01-30T07:12:58.452Z,8.27
2019-01-30T07:15:29.752Z,8.30
2019-01-30T07:18:01.030Z,7.80
2019-01-30T07:20:32.227Z,9.77
2019-01-30T07:23:09.638Z,9.00
2019-01-30T07:25:40.949Z,7.83
2019-01-30T07:28:12.226Z,9.30
2019-01-30T07:30:43.517Z,10.63
2019-01-30T07:33:14.901Z,8.17
2019-01-30T07:35:46.213Z,12.50
2019-01-30T07:38:17.496Z,10.27
2019-01-30T07:40:48.775Z,7.57
2019-01-30T07:43:20.039Z,9.77
2019-01-30T07:45:51.339Z,10.67
2019-01-30T07:48:22.584Z,9.23
2019-01-30T07:50:53.826Z,8.27
2019-01-30T07:53:25.290Z,8.83
2019-01-30T07:55:56.580Z,7.37
2019-01-30T07:58:27.800Z,8.17
2019-01-30T08:00:59.001Z,8.10
2019-01-30T08:03:30.250Z,8.10
2019-01-30T08:06:01.566Z,9.90
2019-01-30T08:08:32.741Z,8.70
2019-01-30T08:11:03.979Z,8.47
2019-01-30T08:13:35.168Z,8.73
2019-01-30T08:16:06.470Z,9.30
2019-01-30T08:18:37.697Z,9.03
2019-01-30T08:21:08.931Z,9.63
2019-01-30T08:23:40.268Z,9.17
2019-01-30T08:26:11.647Z,8.60
2019-01-30T08:28:42.882Z,9.13
2019-01-30T08:31:14.218Z,8.10
2019-01-30T08:33:45.454Z,8.00
2019-01-30T08:36:16.712Z,9.33
2019-01-30T08:38:49.188Z,8.50
2019-01-30T08:41:20.502Z,10.73
2019-01-30T08:43:51.690Z,9.57
2019-01-30T08:46:31.155Z,8.80
2019-01-30T08:49:12.157Z,8.40
2019-01-30T08:51:45.093Z,7.60
2019-01-30T08:54:32.902Z,8.90
2019-01-30T08:57:06.227Z,9.07
2019-01-30T08:59:41.616Z,10.50
2019-01-30T09:02:14.334Z,10.40
2019-01-30T09:04:47.200Z,11.30
2019-01-30T09:07:18.660Z,9.63
2019-01-30T09:10:06.202Z,8.90
2019-01-30T09:12:37.476Z,8.80
2019-01-30T09:15:10.755Z,9.83
2019-01-30T09:17:42.029Z,9.37
2019-01-30T09:20:19.329Z,7.87
2019-01-30T09:22:50.609Z,8.57
2019-01-30T09:25:24.731Z,9.60
2019-01-30T09:27:55.979Z,9.07
2019-01-30T09:30:33.784Z,7.47
2019-01-30T09:33:06.656Z,8.93
2019-01-30T09:35:56.897Z,10.50
2019-01-30T09:38:28.119Z,11.50
2019-01-30T09:40:59.370Z,9.80
2019-01-30T09:43:30.671Z,8.90
2019-01-30T09:46:01.917Z,9.30
2019-01-30T09:48:33.214Z,9.43
2019-01-30T09:51:04.432Z,9.10
2019-01-30T09:53:35.713Z,10.43
2019-01-30T09:56:07.067Z,8.70
2019-01-30T09:58:38.342Z,7.83
2019-01-30T10:01:09.694Z,8.87
2019-01-30T10:03:40.910Z,10.97
2019-01-30T10:06:12.078Z,8.83
2019-01-30T10:08:43.331Z,8.87
2019-01-30T10:11:14.600Z,9.03
2019-01-30T10:13:45.853Z,9.67
2019-01-30T10:16:17.224Z,9.87
2019-01-30T10:18:48.470Z,8.87
2019-01-30T10:21:22.541Z,10.03
2019-01-30T10:23:55.106Z,8.93
2019-01-30T10:26:27.643Z,8.70
2019-01-30T10:29:00.737Z,10.50
2019-01-30T10:31:36.385Z,11.17
2019-01-30T10:34:10.523Z,9.63
2019-01-30T10:36:44.111Z,8.80
2019-01-30T10:39:17.105Z,9.93
2019-01-30T10:41:50.590Z,10.60
2019-01-30T10:44:21.886Z,11.57
2019-01-30T10:46:53.183Z,11.57
2019-01-30T10:49:24.454Z,10.73
2019-01-30T10:51:55.686Z,9.80
2019-01-30T10:54:26.954Z,9.90
2019-01-30T10:56:58.189Z,11.30
2019-01-30T10:59:29.517Z,12.83
2019-01-30T11:02:00.784Z,12.90
2019-01-30T11:04:35.128Z,12.43
2019-01-30T11:07:12.733Z,12.57
2019-01-30T11:09:43.989Z,13.63
2019-01-30T11:12:15.216Z,14.40
2019-01-30T11:14:46.442Z,12.10
2019-01-30T11:17:17.720Z,12.27
2019-01-30T11:19:49.194Z,12.53
2019-01-30T11:22:26.779Z,11.90
2019-01-30T11:24:57.995Z,12.83
2019-01-30T11:27:29.248Z,14.10
2019-01-30T11:30:00.542Z,12.70
2019-01-30T11:32:32.105Z,12.90
2019-01-30T11:35:03.375Z,13.73
2019-01-30T11:37:34.754Z,12.67
2019-01-30T11:40:08.558Z,11.57
2019-01-30T11:42:39.786Z,12.33
2019-01-30T11:45:16.615Z,13.53
2019-01-30T11:47:49.441Z,12.83
2019-01-30T11:50:22.483Z,12.73
2019-01-30T11:52:53.824Z,14.23
2019-01-30T11:55:25.340Z,13.33
2019-01-30T11:57:56.566Z,15.03
2019-01-30T12:00:35.744Z,15.83
2019-01-30T12:03:07.266Z,16.00
2019-01-30T12:05:55.056Z,13.97
2019-01-30T12:08:26.567Z,15.40
2019-01-30T12:10:58.486Z,14.20
2019-01-30T12:13:29.781Z,15.00
2019-01-30T12:16:01.102Z,15.37
2019-01-30T12:18:32.348Z,13.60
2019-01-30T12:21:03.610Z,14.03
2019-01-30T12:23:34.834Z,14.50
2019-01-30T12:26:06.369Z,12.63
2019-01-30T12:28:37.648Z,15.00
2019-01-30T12:31:09.550Z,13.17
2019-01-30T12:33:40.798Z,14.77
2019-01-30T12:36:14.839Z,15.37
2019-01-30T12:38:46.092Z,14.90
2019-01-30T12:41:17.372Z,14.10
2019-01-30T12:43:48.668Z,14.90
2019-01-30T12:46:20.068Z,13.67
2019-01-30T12:48:51.352Z,14.20
2019-01-30T12:51:22.681Z,16.43
2019-01-30T12:53:54.038Z,14.80
2019-01-30T12:56:25.340Z,16.37
2019-01-30T12:58:56.607Z,15.63
2019-01-30T13:01:27.922Z,15.93
2019-01-30T13:03:59.241Z,12.60
2019-01-30T13:06:30.541Z,13.80
2019-01-30T13:09:01.850Z,14.67
2019-01-30T13:11:33.051Z,15.47
2019-01-30T13:14:04.204Z,15.63
2019-01-30T13:16:36.737Z,15.43
2019-01-30T13:19:08.333Z,14.97
2019-01-30T13:21:39.621Z,14.77
2019-01-30T13:24:12.291Z,15.23
2019-01-30T13:26:43.607Z,14.60
2019-01-30T13:29:14.984Z,17.70
2019-01-30T13:31:48.630Z,14.80
2019-01-30T13:34:21.350Z,13.80
2019-01-30T13:36:52.767Z,15.10
2019-01-30T13:39:26.270Z,14.10
2019-01-30T13:41:57.660Z,12.70
2019-01-30T13:44:28.894Z,17.00
2019-01-30T13:47:00.204Z,14.73
2019-01-30T13:49:31.457Z,14.57
2019-01-30T13:52:02.803Z,14.03
2019-01-30T13:54:34.140Z,15.17
2019-01-30T13:57:05.497Z,15.10
2019-01-30T13:59:36.743Z,15.40
2019-01-30T14:02:07.890Z,17.73
2019-01-30T14:04:39.184Z,14.83
2019-01-30T14:07:10.446Z,14.33
2019-01-30T14:09:41.720Z,15.97
2019-01-30T14:12:12.994Z,16.63
2019-01-30T14:14:44.258Z,15.53
2019-01-30T14:17:15.476Z,16.77
2019-01-30T14:19:46.738Z,17.50
2019-01-30T14:22:17.980Z,14.93
2019-01-30T14:24:49.273Z,19.17
2019-01-30T14:27:20.525Z,20.90
2019-01-30T14:29:58.191Z,21.47
2019-01-30T14:32:24.756Z,20.73
2019-01-30T14:34:56.013Z,19.57
2019-01-30T14:37:29.695Z,18.87
2019-01-30T14:40:18.923Z,25.73
2019-01-30T14:42:50.392Z,18.77
2019-01-30T14:45:21.844Z,19.57
2019-01-30T14:47:58.732Z,18.47
2019-01-30T14:50:31.271Z,18.13
2019-01-30T14:53:03.326Z,17.27
2019-01-30T14:55:34.893Z,17.80
2019-01-30T14:58:08.924Z,15.90
2019-01-30T15:00:40.248Z,18.00
2019-01-30T15:03:11.466Z,15.50
2019-01-30T15:05:42.738Z,15.57
2019-01-30T15:08:14.094Z,17.30
2019-01-30T15:10:45.248Z,17.33
2019-01-30T15:13:16.564Z,18.47
2019-01-30T15:15:47.836Z,19.87
2019-01-30T15:18:18.979Z,16.43
2019-01-30T15:20:50.380Z,18.00
2019-01-30T15:23:21.577Z,17.37
2019-01-30T15:25:52.867Z,16.73
2019-01-30T15:28:24.019Z,17.30
2019-01-30T15:30:55.278Z,19.70
2019-01-30T15:33:26.420Z,18.50
2019-01-30T15:35:57.625Z,18.67
2019-01-30T15:38:28.800Z,18.40
2019-01-30T15:41:00.153Z,18.40
2019-01-30T15:43:31.464Z,19.03
2019-01-30T15:46:02.751Z,18.90
2019-01-30T15:48:34.002Z,19.60
2019-01-30T15:51:05.362Z,17.57
2019-01-30T15:53:36.606Z,19.83
2019-01-30T15:56:08.666Z,17.83
2019-01-30T15:58:39.916Z,18.27
2019-01-30T16:01:38.319Z,18.83
2019-01-30T16:04:10.398Z,17.83
2019-01-30T16:06:41.938Z,19.87
2019-01-30T16:09:13.827Z,17.90
2019-01-30T16:11:47.374Z,18.47
2019-01-30T16:14:22.587Z,19.20
2019-01-30T16:16:54.011Z,21.90
2019-01-30T16:19:25.275Z,18.90
2019-01-30T16:21:56.574Z,19.83
2019-01-30T16:24:27.807Z,19.67
2019-01-30T16:26:59.116Z,17.97
2019-01-30T16:29:30.356Z,21.23
2019-01-30T16:32:01.643Z,18.67
2019-01-30T16:34:32.858Z,20.47
2019-01-30T16:37:04.241Z,20.70
2019-01-30T16:39:35.509Z,21.00
2019-01-30T16:42:07.317Z,23.00
2019-01-30T16:44:38.565Z,20.57
2019-01-30T16:47:17.361Z,21.40
2019-01-30T16:49:49.663Z,19.37
2019-01-30T16:52:21.001Z,19.50
2019-01-30T16:54:52.394Z,20.27
2019-01-30T16:57:23.707Z,19.40
2019-01-30T16:59:54.942Z,20.97
2019-01-30T17:02:26.143Z,19.47
2019-01-30T17:04:57.315Z,20.83
2019-01-30T17:07:28.474Z,19.33
2019-01-30T17:10:00.606Z,22.10
2019-01-30T17:12:31.971Z,21.33
2019-01-30T17:15:03.302Z,17.50
2019-01-30T17:17:34.663Z,21.23
2019-01-30T17:20:09.317Z,20.80
2019-01-30T17:22:40.616Z,21.27
2019-01-30T17:25:12.116Z,18.60
2019-01-30T17:27:43.395Z,19.43
2019-01-30T17:30:48.575Z,18.13
2019-01-30T17:33:19.850Z,18.30
2019-01-30T17:35:51.095Z,20.40
2019-01-30T17:38:25.151Z,19.77
2019-01-30T17:40:55.367Z,22.20
2019-01-30T17:43:26.717Z,23.10
2019-01-30T17:45:57.955Z,19.80
2019-01-30T17:48:29.191Z,21.17
2019-01-30T17:51:03.768Z,21.20
2019-01-30T17:53:35.126Z,20.57
2019-01-30T17:56:06.727Z,18.80
2019-01-30T17:58:38.058Z,22.03
2019-01-30T18:01:09.327Z,20.20
2019-01-30T18:03:40.642Z,22.37
2019-01-30T18:06:13.825Z,20.47
2019-01-30T18:08:45.325Z,22.23
2019-01-30T18:11:16.725Z,23.77
2019-01-30T18:13:53.126Z,25.33
2019-01-30T18:16:26.978Z,24.50
2019-01-30T18:18:57.645Z,21.80
2019-01-30T18:21:32.115Z,22.97
2019-01-30T18:24:03.452Z,23.30
2019-01-30T18:26:37.883Z,22.73
2019-01-30T18:29:08.243Z,22.07
2019-01-30T18:31:42.011Z,23.67
2019-01-30T18:34:12.598Z,23.53
2019-01-30T18:36:49.219Z,23.97
2019-01-30T18:39:22.231Z,25.50
2019-01-30T18:41:53.563Z,26.77
2019-01-30T18:44:24.963Z,24.03
2019-01-30T18:46:57.404Z,23.87
2019-01-30T18:49:28.789Z,25.60
2019-01-30T18:52:03.003Z,23.87
2019-01-30T18:54:34.330Z,24.97
2019-01-30T18:57:05.613Z,26.50
2019-01-30T18:59:36.970Z,25.50
2019-01-30T19:02:11.665Z,23.33
2019-01-30T19:04:42.977Z,22.97
2019-01-30T19:07:15.024Z,25.50
2019-01-30T19:09:46.542Z,24.10
2019-01-30T19:12:17.776Z,25.07
2019-01-30T19:14:48.992Z,24.80
2019-01-30T19:17:20.265Z,25.70
2019-01-30T19:19:53.575Z,25.40
2019-01-30T19:22:24.835Z,25.23
2019-01-30T19:24:56.173Z,26.17
2019-01-30T19:27:27.439Z,27.90
2019-01-30T19:29:58.732Z,26.00
2019-01-30T19:32:30.312Z,28.77
2019-01-30T19:35:01.710Z,26.43
2019-01-30T19:37:33.033Z,28.90
2019-01-30T19:40:04.683Z,25.90
2019-01-30T19:42:36.157Z,28.70
2019-01-30T19:45:17.622Z,27.27
2019-01-30T19:47:50.428Z,28.50
2019-01-30T19:50:25.146Z,30.03
2019-01-30T19:52:57.138Z,30.10
2019-01-30T19:55:30.447Z,32.27
2019-01-30T19:58:05.433Z,34.70
2019-01-30T20:00:46.854Z,34.77
2019-01-30T20:03:22.099Z,35.30
2019-01-30T20:05:53.635Z,36.70
2019-01-30T20:08:24.947Z,33.57
2019-01-30T20:10:56.374Z,35.67
2019-01-30T20:13:27.659Z,34.37
2019-01-30T20:15:59.092Z,35.17
2019-01-30T20:18:33.007Z,32.20
2019-01-30T20:21:04.591Z,32.93
2019-01-30T20:23:36.293Z,33.67
2019-01-30T20:26:07.776Z,31.50
2019-01-30T20:28:39.144Z,32.10
2019-01-30T20:31:13.231Z,32.57
2019-01-30T20:33:44.541Z,29.40
2019-01-30T20:36:15.739Z,31.97
2019-01-30T20:38:46.980Z,29.40
2019-01-30T20:41:18.161Z,26.20
2019-01-30T20:43:49.460Z,30.33
2019-01-30T20:46:21.317Z,30.27
2019-01-30T20:48:52.757Z,31.73
2019-01-30T20:51:24.333Z,30.33
2019-01-30T20:53:55.946Z,31.60
2019-01-30T20:56:27.371Z,30.87
2019-01-30T20:58:58.911Z,27.70
2019-01-30T21:01:37.283Z,29.40
2019-01-30T21:04:10.106Z,27.20
2019-01-30T21:06:41.603Z,29.40
2019-01-30T21:09:15.393Z,28.70
2019-01-30T21:11:46.956Z,26.90
2019-01-30T21:14:22.946Z,28.30
2019-01-30T21:16:55.559Z,29.63
2019-01-30T21:19:27.092Z,27.47
2019-01-30T21:22:02.673Z,27.70
2019-01-30T21:24:34.005Z,25.70
2019-01-30T21:27:05.903Z,24.50
2019-01-30T21:29:38.658Z,27.20
2019-01-30T21:32:11.349Z,24.77
2019-01-30T21:34:43.243Z,27.67
2019-01-30T21:37:14.590Z,25.90
2019-01-30T21:39:46.152Z,27.90
2019-01-30T21:42:17.571Z,26.23
2019-01-30T21:44:49.144Z,25.20
2019-01-30T21:47:20.766Z,24.23
2019-01-30T21:49:52.446Z,23.57
2019-01-30T21:52:23.850Z,23.10
2019-01-30T21:54:55.255Z,24.53
2019-01-30T21:57:26.701Z,22.47
2019-01-30T21:59:58.191Z,20.30
2019-01-30T22:02:29.464Z,21.63
2019-01-30T22:05:01.070Z,22.50
2019-01-30T22:07:32.681Z,22.43
2019-01-30T22:10:04.603Z,20.23
2019-01-30T22:12:36.144Z,21.10
2019-01-30T22:15:09.804Z,20.87
2019-01-30T22:17:44.699Z,20.33
2019-01-30T22:20:19.606Z,20.40
2019-01-30T22:22:51.102Z,21.23
2019-01-30T22:25:23.596Z,18.57
2019-01-30T22:27:55.116Z,19.60
2019-01-30T22:30:33.017Z,22.20
2019-01-30T22:33:10.818Z,20.07
2019-01-30T22:35:46.390Z,20.93
2019-01-30T22:38:23.003Z,23.60
2019-01-30T22:40:54.485Z,21.20
2019-01-30T22:43:27.233Z,20.97
2019-01-30T22:46:06.950Z,24.10
2019-01-30T22:48:41.609Z,23.93
2019-01-30T22:51:15.315Z,22.53
2019-01-30T22:53:52.534Z,24.13
2019-01-30T22:56:25.867Z,24.40
2019-01-30T22:58:57.801Z,23.13
2019-01-30T23:01:53.370Z,23.27
2019-01-30T23:05:15.161Z,24.57
2019-01-30T23:08:26.353Z,23.93
2019-01-30T23:12:03.174Z,23.63
2019-01-30T23:14:58.986Z,21.70
2019-01-30T23:18:49.656Z,23.27
2019-01-30T23:21:27.937Z,21.27
2019-01-30T23:25:18.474Z,21.90
2019-01-30T23:28:51.865Z,23.20
2019-01-30T23:32:21.773Z,21.70
2019-01-30T23:35:33.470Z,23.67
2019-01-30T23:38:21.909Z,24.10
2019-01-30T23:41:47.230Z,21.13
2019-01-30T23:45:33.482Z,21.73
2019-01-30T23:49:37.136Z,21.87
2019-01-30T23:53:05.576Z,23.20
2019-01-30T23:56:18.468Z,22.10
